PWSweather.com
Personal Weather Stations
Station Observations
INORDPAS37
Bondues, BonduesFR 59910

BonduesBonduesFR 59910

Lat: 50.7, Lon: 3.09

Elevation: 102

Station Type: Netatmo

http://bondues.meteoamikuze.com

High Low Average
Temperature 72.0°F22.2°F 55.8°F13.2°F 63.7°F17.6°F
Dew Point 46.9°F8.3°F 34.5°F1.4°F 41.0°F5.0°F
Winds 3.1 mph -5.0 mph - 0.7 mph 1.1 mph 1.7 mph 2.7 mph
Wind Gusts 10.5 mph16.9 mph 1.3 mph2.1 mph 4.6 mph7.4 mph
Humidity 53% 39% 44%
Pressure 29.56 in1001.00 in 29.39 in995.30 in -
Precipitation 0.00 in0.00 in - -
Hour Temp Dew Point Humidity Winds Wind Gusts Pressure Precip Precip Rate Daily Precip Total
12:01 AM 63.3°F17.4°C 38.7°F3.7°C 39% 1.8 mph E2.9 kmh E 4.3 mph6.9 kmh 29.56 in1001.0 mb 0.00 in0.0 mm 0.00 in0.0 mm 0.00 in0.0 mm
12:22 AM 62.8°F17.1°C 38.1°F3.4°C 39% 1.3 mph E2.1 kmh E 4.3 mph6.9 kmh 29.56 in1001.0 mb 0.00 in0.0 mm 0.00 in0.0 mm 0.00 in0.0 mm
12:41 AM 62.1°F16.7°C 37.9°F3.3°C 40% 1.3 mph E2.1 kmh E 4.3 mph6.9 kmh 29.55 in1000.7 mb 0.00 in0.0 mm 0.00 in0.0 mm 0.00 in0.0 mm
01:02 AM 61.5°F16.4°C 37.4°F3.0°C 40% 1.8 mph E2.9 kmh E 3.8 mph6.1 kmh 29.55 in1000.7 mb 0.00 in0.0 mm 0.00 in0.0 mm 0.00 in0.0 mm
01:22 AM 61.2°F16.2°C 37.0°F2.8°C 40% 1.8 mph E2.9 kmh E 4.9 mph7.9 kmh 29.55 in1000.7 mb 0.00 in0.0 mm 0.00 in0.0 mm 0.00 in0.0 mm
01:43 AM 61.0°F16.1°C 36.9°F2.7°C 40% 1.3 mph E2.1 kmh E 4.3 mph6.9 kmh 29.54 in1000.3 mb 0.00 in0.0 mm 0.00 in0.0 mm 0.00 in0.0 mm
02:03 AM 60.6°F15.9°C 36.7°F2.6°C 40% 1.8 mph E2.9 kmh E 3.8 mph6.1 kmh 29.54 in1000.3 mb 0.00 in0.0 mm 0.00 in0.0 mm 0.00 in0.0 mm
02:20 AM 60.4°F15.8°C 36.9°F2.7°C 41% 1.8 mph E2.9 kmh E 5.6 mph9.0 kmh 29.53 in1000.0 mb 0.00 in0.0 mm 0.00 in0.0 mm 0.00 in0.0 mm
02:40 AM 60.1°F15.6°C 36.5°F2.5°C 41% 2.5 mph E4.0 kmh E 5.6 mph9.0 kmh 29.53 in1000.0 mb 0.00 in0.0 mm 0.00 in0.0 mm 0.00 in0.0 mm
03:00 AM 59.9°F15.5°C 36.7°F2.6°C 42% 1.8 mph E2.9 kmh E 4.9 mph7.9 kmh 29.52 in999.7 mb 0.00 in0.0 mm 0.00 in0.0 mm 0.00 in0.0 mm
03:20 AM 59.5°F15.3°C 36.5°F2.5°C 42% 1.8 mph ESE2.9 kmh ESE 5.6 mph9.0 kmh 29.52 in999.7 mb 0.00 in0.0 mm 0.00 in0.0 mm 0.00 in0.0 mm
03:41 AM 59.0°F15.0°C 36.3°F2.4°C 43% 1.3 mph E2.1 kmh E 3.1 mph5.0 kmh 29.52 in999.7 mb 0.00 in0.0 mm 0.00 in0.0 mm 0.00 in0.0 mm
04:01 AM 58.6°F14.8°C 36.0°F2.2°C 43% 1.3 mph ESE2.1 kmh ESE 3.8 mph6.1 kmh 29.52 in999.7 mb 0.00 in0.0 mm 0.00 in0.0 mm 0.00 in0.0 mm
04:21 AM 58.1°F14.5°C 36.0°F2.2°C 44% 1.8 mph E2.9 kmh E 5.6 mph9.0 kmh 29.51 in999.3 mb 0.00 in0.0 mm 0.00 in0.0 mm 0.00 in0.0 mm
04:41 AM 57.7°F14.3°C 35.6°F2.0°C 44% 1.8 mph E2.9 kmh E 6.9 mph11.1 kmh 29.51 in999.3 mb 0.00 in0.0 mm 0.00 in0.0 mm 0.00 in0.0 mm
05:02 AM 57.4°F14.1°C 35.6°F2.0°C 45% 1.8 mph E2.9 kmh E 4.9 mph7.9 kmh 29.50 in999.0 mb 0.00 in0.0 mm 0.00 in0.0 mm 0.00 in0.0 mm
05:22 AM 57.0°F13.9°C 35.2°F1.8°C 45% 1.8 mph E2.9 kmh E 4.9 mph7.9 kmh 29.50 in999.0 mb 0.00 in0.0 mm 0.00 in0.0 mm 0.00 in0.0 mm
05:42 AM 56.7°F13.7°C 35.1°F1.7°C 45% 1.8 mph ENE2.9 kmh ENE 3.8 mph6.1 kmh 29.50 in999.0 mb 0.00 in0.0 mm 0.00 in0.0 mm 0.00 in0.0 mm
06:03 AM 56.3°F13.5°C 35.1°F1.7°C 46% 1.3 mph E2.1 kmh E 3.8 mph6.1 kmh 29.50 in999.0 mb 0.00 in0.0 mm 0.00 in0.0 mm 0.00 in0.0 mm
06:23 AM 56.1°F13.4°C 34.9°F1.6°C 46% 1.3 mph ENE2.1 kmh ENE 3.8 mph6.1 kmh 29.50 in999.0 mb 0.00 in0.0 mm 0.00 in0.0 mm 0.00 in0.0 mm
06:43 AM 55.8°F13.2°C 34.5°F1.4°C 46% 1.3 mph ENE2.1 kmh ENE 4.9 mph7.9 kmh 29.49 in998.6 mb 0.00 in0.0 mm 0.00 in0.0 mm 0.00 in0.0 mm
07:03 AM 55.8°F13.2°C 34.5°F1.4°C 46% 1.3 mph ENE2.1 kmh ENE 3.1 mph5.0 kmh 29.49 in998.6 mb 0.00 in0.0 mm 0.00 in0.0 mm 0.00 in0.0 mm
07:24 AM 55.8°F13.2°C 34.5°F1.4°C 46% 1.3 mph E2.1 kmh E 2.5 mph4.0 kmh 29.49 in998.6 mb 0.00 in0.0 mm 0.00 in0.0 mm 0.00 in0.0 mm
07:44 AM 56.1°F13.4°C 35.2°F1.8°C 47% 1.3 mph E2.1 kmh E 3.8 mph6.1 kmh 29.49 in998.6 mb 0.00 in0.0 mm 0.00 in0.0 mm 0.00 in0.0 mm
08:04 AM 56.8°F13.8°C 36.0°F2.2°C 47% 1.8 mph E2.9 kmh E 3.8 mph6.1 kmh 29.49 in998.6 mb 0.00 in0.0 mm 0.00 in0.0 mm 0.00 in0.0 mm
08:24 AM 57.9°F14.4°C 36.5°F2.5°C 46% 1.3 mph ESE2.1 kmh ESE 3.1 mph5.0 kmh 29.48 in998.3 mb 0.00 in0.0 mm 0.00 in0.0 mm 0.00 in0.0 mm
08:45 AM 58.6°F14.8°C 37.2°F2.9°C 46% 1.8 mph E2.9 kmh E 4.9 mph7.9 kmh 29.49 in998.6 mb 0.00 in0.0 mm 0.00 in0.0 mm 0.00 in0.0 mm
09:05 AM 59.4°F15.2°C 37.9°F3.3°C 46% 1.8 mph ESE2.9 kmh ESE 5.6 mph9.0 kmh 29.48 in998.3 mb 0.00 in0.0 mm 0.00 in0.0 mm 0.00 in0.0 mm
09:25 AM 60.1°F15.6°C 38.5°F3.6°C 46% 1.3 mph ESE2.1 kmh ESE 3.8 mph6.1 kmh 29.47 in998.0 mb 0.00 in0.0 mm 0.00 in0.0 mm 0.00 in0.0 mm
09:35 AM 60.6°F15.9°C 39.0°F3.9°C 46% 1.3 mph E2.1 kmh E 3.8 mph6.1 kmh 29.47 in998.0 mb 0.00 in0.0 mm 0.00 in0.0 mm 0.00 in0.0 mm
09:46 AM 61.3°F16.3°C 39.7°F4.3°C 46% 1.8 mph ESE2.9 kmh ESE 3.8 mph6.1 kmh 29.47 in998.0 mb 0.00 in0.0 mm 0.00 in0.0 mm 0.00 in0.0 mm
10:27 AM 66.2°F19.0°C 43.7°F6.5°C 45% 2.5 mph SE4.0 kmh SE 5.6 mph9.0 kmh 29.46 in997.6 mb 0.00 in0.0 mm 0.00 in0.0 mm 0.00 in0.0 mm
10:46 AM 66.9°F19.4°C 44.1°F6.7°C 44% 2.5 mph SE4.0 kmh SE 8.1 mph13.0 kmh 29.46 in997.6 mb 0.00 in0.0 mm 0.00 in0.0 mm 0.00 in0.0 mm
11:07 AM 67.5°F19.7°C 44.1°F6.7°C 43% 2.5 mph SE4.0 kmh SE 6.9 mph11.1 kmh 29.46 in997.6 mb 0.00 in0.0 mm 0.00 in0.0 mm 0.00 in0.0 mm
11:27 AM 67.3°F19.6°C 43.5°F6.4°C 42% 2.5 mph E4.0 kmh E 4.9 mph7.9 kmh 29.45 in997.3 mb 0.00 in0.0 mm 0.00 in0.0 mm 0.00 in0.0 mm
11:48 AM 67.3°F19.6°C 43.5°F6.4°C 42% 2.5 mph SE4.0 kmh SE 5.6 mph9.0 kmh 29.45 in997.3 mb 0.00 in0.0 mm 0.00 in0.0 mm 0.00 in0.0 mm
12:07 PM 67.1°F19.5°C 43.3°F6.3°C 42% 1.8 mph E2.9 kmh E 4.3 mph6.9 kmh 29.44 in997.0 mb 0.00 in0.0 mm 0.00 in0.0 mm 0.00 in0.0 mm
12:28 PM 68.0°F20.0°C 44.1°F6.7°C 42% 2.5 mph SE4.0 kmh SE 4.9 mph7.9 kmh 29.44 in997.0 mb 0.00 in0.0 mm 0.00 in0.0 mm 0.00 in0.0 mm
12:48 PM 68.4°F20.2°C 44.4°F6.9°C 42% 1.3 mph E2.1 kmh E 3.8 mph6.1 kmh 29.44 in997.0 mb 0.00 in0.0 mm 0.00 in0.0 mm 0.00 in0.0 mm
01:09 PM 68.7°F20.4°C 44.8°F7.1°C 42% 1.8 mph SE2.9 kmh SE 4.9 mph7.9 kmh 29.43 in996.6 mb 0.00 in0.0 mm 0.00 in0.0 mm 0.00 in0.0 mm
01:29 PM 68.5°F20.3°C 44.6°F7.0°C 42% 2.5 mph E4.0 kmh E 4.9 mph7.9 kmh 29.43 in996.6 mb 0.00 in0.0 mm 0.00 in0.0 mm 0.00 in0.0 mm
01:49 PM 69.3°F20.7°C 45.3°F7.4°C 42% 1.8 mph ESE2.9 kmh ESE 4.9 mph7.9 kmh 29.43 in996.6 mb 0.00 in0.0 mm 0.00 in0.0 mm 0.00 in0.0 mm
02:09 PM 70.3°F21.3°C 46.2°F7.9°C 42% 2.5 mph ESE4.0 kmh ESE 8.1 mph13.0 kmh 29.42 in996.3 mb 0.00 in0.0 mm 0.00 in0.0 mm 0.00 in0.0 mm
02:29 PM 71.4°F21.9°C 46.8°F8.2°C 41% 3.1 mph ESE5.0 kmh ESE 7.4 mph11.9 kmh 29.41 in995.9 mb 0.00 in0.0 mm 0.00 in0.0 mm 0.00 in0.0 mm
02:40 PM 72.0°F22.2°C 46.9°F8.3°C 40% 2.5 mph SE4.0 kmh SE 6.9 mph11.1 kmh 29.41 in995.9 mb 0.00 in0.0 mm 0.00 in0.0 mm 0.00 in0.0 mm
02:59 PM 71.8°F22.1°C 46.8°F8.2°C 40% 3.1 mph ESE5.0 kmh ESE 8.1 mph13.0 kmh 29.41 in995.9 mb 0.00 in0.0 mm 0.00 in0.0 mm 0.00 in0.0 mm
03:20 PM 70.9°F21.6°C 45.9°F7.7°C 40% 1.3 mph ESE2.1 kmh ESE 4.9 mph7.9 kmh 29.41 in995.9 mb 0.00 in0.0 mm 0.00 in0.0 mm 0.00 in0.0 mm
03:39 PM 70.7°F21.5°C 45.7°F7.6°C 40% 1.8 mph ESE2.9 kmh ESE 5.6 mph9.0 kmh 29.40 in995.6 mb 0.00 in0.0 mm 0.00 in0.0 mm 0.00 in0.0 mm
04:00 PM 70.9°F21.6°C 45.9°F7.7°C 40% 1.8 mph E2.9 kmh E 4.3 mph6.9 kmh 29.40 in995.6 mb 0.00 in0.0 mm 0.00 in0.0 mm 0.00 in0.0 mm
04:20 PM 71.2°F21.8°C 46.2°F7.9°C 40% 1.8 mph ESE2.9 kmh ESE 6.9 mph11.1 kmh 29.40 in995.6 mb 0.00 in0.0 mm 0.00 in0.0 mm 0.00 in0.0 mm
04:40 PM 70.9°F21.6°C 45.9°F7.7°C 40% 2.5 mph ESE4.0 kmh ESE 6.9 mph11.1 kmh 29.39 in995.3 mb 0.00 in0.0 mm 0.00 in0.0 mm 0.00 in0.0 mm
05:01 PM 70.0°F21.1°C 45.5°F7.5°C 41% 1.3 mph E2.1 kmh E 4.3 mph6.9 kmh 29.39 in995.3 mb 0.00 in0.0 mm 0.00 in0.0 mm 0.00 in0.0 mm
05:20 PM 70.0°F21.1°C 45.5°F7.5°C 41% 2.5 mph ESE4.0 kmh ESE 6.9 mph11.1 kmh 29.39 in995.3 mb 0.00 in0.0 mm 0.00 in0.0 mm 0.00 in0.0 mm
05:41 PM 69.6°F20.9°C 45.1°F7.3°C 41% 1.8 mph SE2.9 kmh SE 3.8 mph6.1 kmh 29.39 in995.3 mb 0.00 in0.0 mm 0.00 in0.0 mm 0.00 in0.0 mm
06:00 PM 69.6°F20.9°C 45.7°F7.6°C 42% 1.8 mph ESE2.9 kmh ESE 3.8 mph6.1 kmh 29.39 in995.3 mb 0.00 in0.0 mm 0.00 in0.0 mm 0.00 in0.0 mm
06:21 PM 69.6°F20.9°C 46.0°F7.8°C 43% 1.3 mph ENE2.1 kmh ENE 3.1 mph5.0 kmh 29.39 in995.3 mb 0.00 in0.0 mm 0.00 in0.0 mm 0.00 in0.0 mm
06:40 PM 69.1°F20.6°C 45.5°F7.5°C 43% 1.3 mph E2.1 kmh E 2.5 mph4.0 kmh 29.39 in995.3 mb 0.00 in0.0 mm 0.00 in0.0 mm 0.00 in0.0 mm
07:01 PM 68.5°F20.3°C 45.5°F7.5°C 44% 0.7 mph S1.1 kmh S 1.3 mph2.1 kmh 29.39 in995.3 mb 0.00 in0.0 mm 0.00 in0.0 mm 0.00 in0.0 mm
07:21 PM 68.0°F20.0°C 45.3°F7.4°C 45% 1.8 mph S2.9 kmh S 10.5 mph16.9 kmh 29.39 in995.3 mb 0.00 in0.0 mm 0.00 in0.0 mm 0.00 in0.0 mm
07:41 PM 66.9°F19.4°C 44.8°F7.1°C 46% 1.3 mph S2.1 kmh S 4.9 mph7.9 kmh 29.40 in995.6 mb 0.00 in0.0 mm 0.00 in0.0 mm 0.00 in0.0 mm
08:01 PM 66.0°F18.9°C 44.1°F6.7°C 46% 1.8 mph S2.9 kmh S 4.3 mph6.9 kmh 29.41 in995.9 mb 0.00 in0.0 mm 0.00 in0.0 mm 0.00 in0.0 mm
08:26 PM 64.9°F18.3°C 43.3°F6.3°C 47% 1.3 mph S2.1 kmh S 3.1 mph5.0 kmh 29.41 in995.9 mb 0.00 in0.0 mm 0.00 in0.0 mm 0.00 in0.0 mm
08:45 PM 64.4°F18.0°C 43.3°F6.3°C 48% 1.3 mph S2.1 kmh S 3.1 mph5.0 kmh 29.41 in995.9 mb 0.00 in0.0 mm 0.00 in0.0 mm 0.00 in0.0 mm
09:02 PM 63.9°F17.7°C 42.8°F6.0°C 48% 1.8 mph SSE2.9 kmh SSE 4.3 mph6.9 kmh 29.41 in995.9 mb 0.00 in0.0 mm 0.00 in0.0 mm 0.00 in0.0 mm
09:23 PM 63.3°F17.4°C 42.3°F5.7°C 48% 1.3 mph S2.1 kmh S 3.8 mph6.1 kmh 29.41 in995.9 mb 0.00 in0.0 mm 0.00 in0.0 mm 0.00 in0.0 mm
09:42 PM 62.8°F17.1°C 42.3°F5.7°C 49% 1.3 mph S2.1 kmh S 2.5 mph4.0 kmh 29.41 in995.9 mb 0.00 in0.0 mm 0.00 in0.0 mm 0.00 in0.0 mm
10:03 PM 62.2°F16.8°C 42.1°F5.6°C 50% 1.3 mph S2.1 kmh S 2.5 mph4.0 kmh 29.41 in995.9 mb 0.00 in0.0 mm 0.00 in0.0 mm 0.00 in0.0 mm
10:23 PM 61.7°F16.5°C 42.1°F5.6°C 51% 1.3 mph SSE2.1 kmh SSE 2.5 mph4.0 kmh 29.41 in995.9 mb 0.00 in0.0 mm 0.00 in0.0 mm 0.00 in0.0 mm
10:43 PM 61.0°F16.1°C 41.7°F5.4°C 52% 1.8 mph S2.9 kmh S 3.1 mph5.0 kmh 29.41 in995.9 mb 0.00 in0.0 mm 0.00 in0.0 mm 0.00 in0.0 mm
10:53 PM 60.6°F15.9°C 41.5°F5.3°C 52% 1.3 mph SSE2.1 kmh SSE 3.1 mph5.0 kmh 29.41 in995.9 mb 0.00 in0.0 mm 0.00 in0.0 mm 0.00 in0.0 mm
11:23 PM 59.7°F15.4°C 40.6°F4.8°C 52% 1.3 mph SSE2.1 kmh SSE 2.5 mph4.0 kmh 29.41 in995.9 mb 0.00 in0.0 mm 0.00 in0.0 mm 0.00 in0.0 mm
11:43 PM 59.0°F15.0°C 40.3°F4.6°C 53% 1.3 mph SSE2.1 kmh SSE 3.1 mph5.0 kmh 29.41 in995.9 mb 0.00 in0.0 mm 0.00 in0.0 mm 0.00 in0.0 mm